sensor_id;sensor_type;location;lat;lon;timestamp;P1;durP1;ratioP1;P2;durP2;ratioP2
58760;SDS011;44529;47.464;19.014;2023-04-06T00:01:25;11.40;;;7.18;;
58760;SDS011;44529;47.464;19.014;2023-04-06T00:04:27;12.18;;;6.97;;
58760;SDS011;44529;47.464;19.014;2023-04-06T00:07:29;10.02;;;7.00;;
58760;SDS011;44529;47.464;19.014;2023-04-06T00:10:32;10.73;;;7.05;;
58760;SDS011;44529;47.464;19.014;2023-04-06T00:13:34;11.85;;;6.82;;
58760;SDS011;44529;47.464;19.014;2023-04-06T00:16:37;15.10;;;8.38;;
58760;SDS011;44529;47.464;19.014;2023-04-06T00:19:39;12.65;;;8.70;;
58760;SDS011;44529;47.464;19.014;2023-04-06T00:22:43;11.80;;;7.72;;
58760;SDS011;44529;47.464;19.014;2023-04-06T00:25:45;14.50;;;8.38;;
58760;SDS011;44529;47.464;19.014;2023-04-06T00:28:48;14.82;;;9.80;;
58760;SDS011;44529;47.464;19.014;2023-04-06T00:31:51;17.73;;;11.45;;
58760;SDS011;44529;47.464;19.014;2023-04-06T00:34:54;21.15;;;12.63;;
58760;SDS011;44529;47.464;19.014;2023-04-06T00:37:56;18.00;;;12.50;;
58760;SDS011;44529;47.464;19.014;2023-04-06T00:40:59;21.85;;;12.77;;
58760;SDS011;44529;47.464;19.014;2023-04-06T00:44:01;16.75;;;11.65;;
58760;SDS011;44529;47.464;19.014;2023-04-06T00:47:04;15.82;;;10.85;;
58760;SDS011;44529;47.464;19.014;2023-04-06T00:50:06;19.73;;;10.93;;
58760;SDS011;44529;47.464;19.014;2023-04-06T00:53:09;14.75;;;10.38;;
58760;SDS011;44529;47.464;19.014;2023-04-06T00:56:12;15.38;;;10.02;;
58760;SDS011;44529;47.464;19.014;2023-04-06T00:59:15;16.33;;;10.10;;
58760;SDS011;44529;47.464;19.014;2023-04-06T01:02:18;18.37;;;10.90;;
58760;SDS011;44529;47.464;19.014;2023-04-06T01:05:21;16.55;;;11.48;;
58760;SDS011;44529;47.464;19.014;2023-04-06T01:08:24;24.63;;;11.85;;
58760;SDS011;44529;47.464;19.014;2023-04-06T01:11:28;21.45;;;12.45;;
58760;SDS011;44529;47.464;19.014;2023-04-06T01:14:30;18.87;;;12.15;;
58760;SDS011;44529;47.464;19.014;2023-04-06T01:17:33;18.75;;;12.52;;
58760;SDS011;44529;47.464;19.014;2023-04-06T01:20:37;19.70;;;11.68;;
58760;SDS011;44529;47.464;19.014;2023-04-06T01:23:42;20.70;;;11.85;;
58760;SDS011;44529;47.464;19.014;2023-04-06T01:26:46;17.73;;;11.27;;
58760;SDS011;44529;47.464;19.014;2023-04-06T01:29:48;15.20;;;10.68;;
58760;SDS011;44529;47.464;19.014;2023-04-06T01:32:52;14.32;;;9.90;;
58760;SDS011;44529;47.464;19.014;2023-04-06T01:35:55;15.50;;;10.20;;
58760;SDS011;44529;47.464;19.014;2023-04-06T01:38:58;12.80;;;9.90;;
58760;SDS011;44529;47.464;19.014;2023-04-06T01:42:01;14.15;;;9.30;;
58760;SDS011;44529;47.464;19.014;2023-04-06T01:45:05;14.30;;;9.73;;
58760;SDS011;44529;47.464;19.014;2023-04-06T01:48:08;15.77;;;9.90;;
58760;SDS011;44529;47.464;19.014;2023-04-06T01:51:10;16.50;;;9.77;;
58760;SDS011;44529;47.464;19.014;2023-04-06T01:54:16;17.80;;;9.70;;
58760;SDS011;44529;47.464;19.014;2023-04-06T01:57:19;15.65;;;9.65;;
58760;SDS011;44529;47.464;19.014;2023-04-06T02:00:23;17.08;;;9.50;;
58760;SDS011;44529;47.464;19.014;2023-04-06T02:03:26;14.38;;;9.57;;
58760;SDS011;44529;47.464;19.014;2023-04-06T02:06:31;16.92;;;10.50;;
58760;SDS011;44529;47.464;19.014;2023-04-06T02:09:34;17.80;;;11.07;;
58760;SDS011;44529;47.464;19.014;2023-04-06T02:12:37;18.45;;;10.30;;
58760;SDS011;44529;47.464;19.014;2023-04-06T02:15:40;15.98;;;10.63;;
58760;SDS011;44529;47.464;19.014;2023-04-06T02:18:42;18.50;;;10.93;;
58760;SDS011;44529;47.464;19.014;2023-04-06T02:21:45;16.90;;;10.55;;
58760;SDS011;44529;47.464;19.014;2023-04-06T02:24:48;14.50;;;10.68;;
58760;SDS011;44529;47.464;19.014;2023-04-06T02:27:50;15.27;;;10.70;;
58760;SDS011;44529;47.464;19.014;2023-04-06T02:30:53;17.42;;;10.40;;
58760;SDS011;44529;47.464;19.014;2023-04-06T02:33:57;15.68;;;11.32;;
58760;SDS011;44529;47.464;19.014;2023-04-06T02:37:01;16.25;;;10.38;;
58760;SDS011;44529;47.464;19.014;2023-04-06T02:40:04;16.73;;;10.93;;
58760;SDS011;44529;47.464;19.014;2023-04-06T02:43:08;17.73;;;11.43;;
58760;SDS011;44529;47.464;19.014;2023-04-06T02:46:10;17.90;;;11.63;;
58760;SDS011;44529;47.464;19.014;2023-04-06T02:49:13;19.60;;;11.82;;
58760;SDS011;44529;47.464;19.014;2023-04-06T02:52:15;15.43;;;11.23;;
58760;SDS011;44529;47.464;19.014;2023-04-06T02:55:20;16.37;;;10.73;;
58760;SDS011;44529;47.464;19.014;2023-04-06T02:58:23;16.73;;;10.70;;
58760;SDS011;44529;47.464;19.014;2023-04-06T03:01:27;15.75;;;10.40;;
58760;SDS011;44529;47.464;19.014;2023-04-06T03:04:30;14.40;;;10.70;;
58760;SDS011;44529;47.464;19.014;2023-04-06T03:07:33;17.33;;;10.77;;
58760;SDS011;44529;47.464;19.014;2023-04-06T03:10:36;18.77;;;10.77;;
58760;SDS011;44529;47.464;19.014;2023-04-06T03:13:39;16.90;;;10.82;;
58760;SDS011;44529;47.464;19.014;2023-04-06T03:16:41;18.27;;;11.50;;
58760;SDS011;44529;47.464;19.014;2023-04-06T03:19:45;16.25;;;11.02;;
58760;SDS011;44529;47.464;19.014;2023-04-06T03:22:47;19.58;;;11.07;;
58760;SDS011;44529;47.464;19.014;2023-04-06T03:25:51;19.58;;;11.12;;
58760;SDS011;44529;47.464;19.014;2023-04-06T03:28:53;18.58;;;10.93;;
58760;SDS011;44529;47.464;19.014;2023-04-06T03:31:57;17.48;;;11.55;;
58760;SDS011;44529;47.464;19.014;2023-04-06T03:35:00;17.00;;;11.43;;
58760;SDS011;44529;47.464;19.014;2023-04-06T03:38:03;20.58;;;11.32;;
58760;SDS011;44529;47.464;19.014;2023-04-06T03:41:06;17.90;;;11.77;;
58760;SDS011;44529;47.464;19.014;2023-04-06T03:44:09;18.85;;;11.73;;
58760;SDS011;44529;47.464;19.014;2023-04-06T03:47:11;16.27;;;10.55;;
58760;SDS011;44529;47.464;19.014;2023-04-06T03:50:15;16.25;;;11.12;;
58760;SDS011;44529;47.464;19.014;2023-04-06T03:53:18;20.67;;;11.25;;
58760;SDS011;44529;47.464;19.014;2023-04-06T03:56:21;17.90;;;11.63;;
58760;SDS011;44529;47.464;19.014;2023-04-06T03:59:23;16.75;;;11.25;;
58760;SDS011;44529;47.464;19.014;2023-04-06T04:02:27;14.77;;;9.73;;
58760;SDS011;44529;47.464;19.014;2023-04-06T04:05:30;13.57;;;9.98;;
58760;SDS011;44529;47.464;19.014;2023-04-06T04:08:32;16.83;;;10.65;;
58760;SDS011;44529;47.464;19.014;2023-04-06T04:11:36;17.10;;;11.32;;
58760;SDS011;44529;47.464;19.014;2023-04-06T04:14:38;18.62;;;11.30;;
58760;SDS011;44529;47.464;19.014;2023-04-06T04:17:41;17.55;;;12.00;;
58760;SDS011;44529;47.464;19.014;2023-04-06T04:20:48;18.02;;;12.07;;
58760;SDS011;44529;47.464;19.014;2023-04-06T04:23:55;21.60;;;12.88;;
58760;SDS011;44529;47.464;19.014;2023-04-06T04:26:57;17.05;;;11.88;;
58760;SDS011;44529;47.464;19.014;2023-04-06T04:30:00;17.98;;;11.93;;
58760;SDS011;44529;47.464;19.014;2023-04-06T04:33:03;20.40;;;12.82;;
58760;SDS011;44529;47.464;19.014;2023-04-06T04:36:06;15.15;;;11.48;;
58760;SDS011;44529;47.464;19.014;2023-04-06T04:39:10;18.05;;;11.82;;
58760;SDS011;44529;47.464;19.014;2023-04-06T04:42:14;16.10;;;11.93;;
58760;SDS011;44529;47.464;19.014;2023-04-06T04:45:18;18.80;;;11.63;;
58760;SDS011;44529;47.464;19.014;2023-04-06T04:48:21;21.02;;;11.63;;
58760;SDS011;44529;47.464;19.014;2023-04-06T04:51:24;19.20;;;12.32;;
58760;SDS011;44529;47.464;19.014;2023-04-06T04:54:28;17.77;;;11.70;;
58760;SDS011;44529;47.464;19.014;2023-04-06T04:57:31;17.62;;;12.70;;
58760;SDS011;44529;47.464;19.014;2023-04-06T05:00:34;18.37;;;12.10;;
58760;SDS011;44529;47.464;19.014;2023-04-06T05:03:37;19.23;;;12.23;;
58760;SDS011;44529;47.464;19.014;2023-04-06T05:06:41;18.08;;;13.05;;
58760;SDS011;44529;47.464;19.014;2023-04-06T05:09:44;18.27;;;12.60;;
58760;SDS011;44529;47.464;19.014;2023-04-06T05:12:48;18.12;;;12.50;;
58760;SDS011;44529;47.464;19.014;2023-04-06T05:15:50;17.48;;;12.32;;
58760;SDS011;44529;47.464;19.014;2023-04-06T05:18:54;18.75;;;13.20;;
58760;SDS011;44529;47.464;19.014;2023-04-06T05:22:00;23.98;;;11.80;;
58760;SDS011;44529;47.464;19.014;2023-04-06T05:25:11;21.40;;;13.20;;
58760;SDS011;44529;47.464;19.014;2023-04-06T05:28:14;22.80;;;12.70;;
58760;SDS011;44529;47.464;19.014;2023-04-06T05:31:18;18.65;;;11.40;;
58760;SDS011;44529;47.464;19.014;2023-04-06T05:34:21;21.60;;;12.60;;
58760;SDS011;44529;47.464;19.014;2023-04-06T05:37:24;17.83;;;11.73;;
58760;SDS011;44529;47.464;19.014;2023-04-06T05:40:27;22.70;;;11.88;;
58760;SDS011;44529;47.464;19.014;2023-04-06T05:43:29;16.55;;;11.98;;
58760;SDS011;44529;47.464;19.014;2023-04-06T05:46:32;19.87;;;11.32;;
58760;SDS011;44529;47.464;19.014;2023-04-06T05:49:35;16.98;;;12.02;;
58760;SDS011;44529;47.464;19.014;2023-04-06T05:52:39;16.95;;;11.98;;
58760;SDS011;44529;47.464;19.014;2023-04-06T05:55:45;17.15;;;12.07;;
58760;SDS011;44529;47.464;19.014;2023-04-06T05:58:48;21.45;;;12.05;;
58760;SDS011;44529;47.464;19.014;2023-04-06T06:01:52;18.02;;;12.15;;
58760;SDS011;44529;47.464;19.014;2023-04-06T06:04:56;19.73;;;12.10;;
58760;SDS011;44529;47.464;19.014;2023-04-06T06:07:59;18.77;;;11.95;;
58760;SDS011;44529;47.464;19.014;2023-04-06T06:11:04;18.45;;;12.50;;
58760;SDS011;44529;47.464;19.014;2023-04-06T06:14:06;19.10;;;12.32;;
58760;SDS011;44529;47.464;19.014;2023-04-06T06:17:10;17.60;;;11.40;;
58760;SDS011;44529;47.464;19.014;2023-04-06T06:20:13;15.85;;;11.50;;
58760;SDS011;44529;47.464;19.014;2023-04-06T06:23:17;17.52;;;12.32;;
58760;SDS011;44529;47.464;19.014;2023-04-06T06:26:19;23.33;;;13.40;;
58760;SDS011;44529;47.464;19.014;2023-04-06T06:29:23;18.35;;;12.00;;
58760;SDS011;44529;47.464;19.014;2023-04-06T06:32:26;17.40;;;12.05;;
58760;SDS011;44529;47.464;19.014;2023-04-06T06:35:29;16.10;;;11.60;;
58760;SDS011;44529;47.464;19.014;2023-04-06T06:38:32;16.85;;;11.90;;
58760;SDS011;44529;47.464;19.014;2023-04-06T06:41:35;14.60;;;11.57;;
58760;SDS011;44529;47.464;19.014;2023-04-06T06:44:38;20.98;;;11.50;;
58760;SDS011;44529;47.464;19.014;2023-04-06T06:47:40;14.18;;;9.40;;
58760;SDS011;44529;47.464;19.014;2023-04-06T06:50:46;12.63;;;8.07;;
58760;SDS011;44529;47.464;19.014;2023-04-06T06:53:50;14.00;;;7.93;;
58760;SDS011;44529;47.464;19.014;2023-04-06T06:56:52;10.43;;;7.57;;
58760;SDS011;44529;47.464;19.014;2023-04-06T06:59:56;11.18;;;7.85;;
58760;SDS011;44529;47.464;19.014;2023-04-06T07:02:58;12.05;;;8.32;;
58760;SDS011;44529;47.464;19.014;2023-04-06T07:06:01;14.15;;;8.68;;
58760;SDS011;44529;47.464;19.014;2023-04-06T07:09:04;13.57;;;9.48;;
58760;SDS011;44529;47.464;19.014;2023-04-06T07:12:07;15.65;;;8.40;;
58760;SDS011;44529;47.464;19.014;2023-04-06T07:15:10;14.95;;;8.05;;
58760;SDS011;44529;47.464;19.014;2023-04-06T07:18:13;13.10;;;8.95;;
58760;SDS011;44529;47.464;19.014;2023-04-06T07:21:16;14.48;;;8.82;;
58760;SDS011;44529;47.464;19.014;2023-04-06T07:24:18;13.00;;;8.73;;
58760;SDS011;44529;47.464;19.014;2023-04-06T07:27:21;13.30;;;8.85;;
58760;SDS011;44529;47.464;19.014;2023-04-06T07:30:23;12.77;;;8.75;;
58760;SDS011;44529;47.464;19.014;2023-04-06T07:33:28;12.30;;;9.05;;
58760;SDS011;44529;47.464;19.014;2023-04-06T07:36:32;12.80;;;8.35;;
58760;SDS011;44529;47.464;19.014;2023-04-06T07:39:34;10.77;;;7.90;;
58760;SDS011;44529;47.464;19.014;2023-04-06T07:42:37;12.75;;;8.50;;
58760;SDS011;44529;47.464;19.014;2023-04-06T07:45:40;15.40;;;8.60;;
58760;SDS011;44529;47.464;19.014;2023-04-06T07:48:43;14.18;;;8.98;;
58760;SDS011;44529;47.464;19.014;2023-04-06T07:51:45;12.77;;;8.18;;
58760;SDS011;44529;47.464;19.014;2023-04-06T07:54:48;14.02;;;9.40;;
58760;SDS011;44529;47.464;19.014;2023-04-06T07:57:51;11.77;;;8.13;;
58760;SDS011;44529;47.464;19.014;2023-04-06T08:00:54;11.07;;;8.63;;
58760;SDS011;44529;47.464;19.014;2023-04-06T08:03:57;12.35;;;7.97;;
58760;SDS011;44529;47.464;19.014;2023-04-06T08:07:00;11.25;;;8.45;;
58760;SDS011;44529;47.464;19.014;2023-04-06T08:10:03;13.32;;;8.75;;
58760;SDS011;44529;47.464;19.014;2023-04-06T08:13:05;14.38;;;9.25;;
58760;SDS011;44529;47.464;19.014;2023-04-06T08:16:08;13.15;;;8.88;;
58760;SDS011;44529;47.464;19.014;2023-04-06T08:19:11;15.27;;;8.10;;
58760;SDS011;44529;47.464;19.014;2023-04-06T08:22:13;12.02;;;8.05;;
58760;SDS011;44529;47.464;19.014;2023-04-06T08:25:15;12.52;;;9.00;;
58760;SDS011;44529;47.464;19.014;2023-04-06T08:28:18;10.18;;;7.80;;
58760;SDS011;44529;47.464;19.014;2023-04-06T08:31:20;11.15;;;7.72;;
58760;SDS011;44529;47.464;19.014;2023-04-06T08:34:23;12.25;;;8.82;;
58760;SDS011;44529;47.464;19.014;2023-04-06T08:37:25;12.93;;;8.07;;
58760;SDS011;44529;47.464;19.014;2023-04-06T08:40:28;14.00;;;9.57;;
58760;SDS011;44529;47.464;19.014;2023-04-06T08:43:30;15.05;;;9.07;;
58760;SDS011;44529;47.464;19.014;2023-04-06T08:46:33;13.73;;;9.35;;
58760;SDS011;44529;47.464;19.014;2023-04-06T08:49:37;15.82;;;8.98;;
58760;SDS011;44529;47.464;19.014;2023-04-06T08:52:40;13.20;;;8.95;;
58760;SDS011;44529;47.464;19.014;2023-04-06T08:55:45;14.23;;;9.13;;
58760;SDS011;44529;47.464;19.014;2023-04-06T08:58:48;15.02;;;8.25;;
58760;SDS011;44529;47.464;19.014;2023-04-06T09:01:51;13.38;;;8.75;;
58760;SDS011;44529;47.464;19.014;2023-04-06T09:04:56;10.98;;;8.23;;
58760;SDS011;44529;47.464;19.014;2023-04-06T09:07:59;12.55;;;8.00;;
58760;SDS011;44529;47.464;19.014;2023-04-06T09:11:02;11.18;;;7.65;;
58760;SDS011;44529;47.464;19.014;2023-04-06T09:14:05;10.88;;;8.13;;
58760;SDS011;44529;47.464;19.014;2023-04-06T09:17:07;12.18;;;8.32;;
58760;SDS011;44529;47.464;19.014;2023-04-06T09:20:10;11.20;;;7.72;;
58760;SDS011;44529;47.464;19.014;2023-04-06T09:23:19;12.45;;;7.62;;
58760;SDS011;44529;47.464;19.014;2023-04-06T09:26:22;11.30;;;7.43;;
58760;SDS011;44529;47.464;19.014;2023-04-06T09:29:25;16.08;;;8.10;;
58760;SDS011;44529;47.464;19.014;2023-04-06T09:32:28;10.02;;;6.80;;
58760;SDS011;44529;47.464;19.014;2023-04-06T09:35:31;11.43;;;7.60;;
58760;SDS011;44529;47.464;19.014;2023-04-06T09:38:36;11.00;;;7.32;;
58760;SDS011;44529;47.464;19.014;2023-04-06T09:41:40;11.23;;;7.57;;
58760;SDS011;44529;47.464;19.014;2023-04-06T09:44:42;14.10;;;7.28;;
58760;SDS011;44529;47.464;19.014;2023-04-06T09:47:45;11.98;;;7.15;;
58760;SDS011;44529;47.464;19.014;2023-04-06T09:50:49;9.63;;;7.75;;
58760;SDS011;44529;47.464;19.014;2023-04-06T09:53:53;9.45;;;6.82;;
58760;SDS011;44529;47.464;19.014;2023-04-06T09:57:20;10.98;;;7.75;;
58760;SDS011;44529;47.464;19.014;2023-04-06T10:00:27;11.27;;;7.03;;
58760;SDS011;44529;47.464;19.014;2023-04-06T10:06:46;11.68;;;7.03;;
58760;SDS011;44529;47.464;19.014;2023-04-06T10:09:54;9.95;;;6.62;;
58760;SDS011;44529;47.464;19.014;2023-04-06T10:12:57;10.23;;;7.55;;
58760;SDS011;44529;47.464;19.014;2023-04-06T10:16:00;22.87;;;8.63;;
58760;SDS011;44529;47.464;19.014;2023-04-06T10:19:10;14.90;;;7.40;;
58760;SDS011;44529;47.464;19.014;2023-04-06T10:22:32;10.93;;;7.80;;
58760;SDS011;44529;47.464;19.014;2023-04-06T10:25:59;19.60;;;8.27;;
58760;SDS011;44529;47.464;19.014;2023-04-06T10:29:03;8.93;;;6.40;;
58760;SDS011;44529;47.464;19.014;2023-04-06T10:32:06;8.18;;;6.50;;
58760;SDS011;44529;47.464;19.014;2023-04-06T10:35:09;10.43;;;6.37;;
58760;SDS011;44529;47.464;19.014;2023-04-06T10:38:12;8.82;;;6.40;;
58760;SDS011;44529;47.464;19.014;2023-04-06T10:41:16;8.23;;;6.07;;
58760;SDS011;44529;47.464;19.014;2023-04-06T10:44:22;9.25;;;6.20;;
58760;SDS011;44529;47.464;19.014;2023-04-06T10:47:25;11.85;;;6.60;;
58760;SDS011;44529;47.464;19.014;2023-04-06T10:50:28;11.57;;;6.35;;
58760;SDS011;44529;47.464;19.014;2023-04-06T10:53:31;7.05;;;5.85;;
58760;SDS011;44529;47.464;19.014;2023-04-06T10:56:36;9.93;;;6.45;;
58760;SDS011;44529;47.464;19.014;2023-04-06T10:59:43;6.82;;;6.10;;
58760;SDS011;44529;47.464;19.014;2023-04-06T11:02:46;12.07;;;6.50;;
58760;SDS011;44529;47.464;19.014;2023-04-06T11:05:50;9.50;;;6.53;;
58760;SDS011;44529;47.464;19.014;2023-04-06T11:08:54;10.57;;;6.85;;
58760;SDS011;44529;47.464;19.014;2023-04-06T11:11:57;13.70;;;6.35;;
58760;SDS011;44529;47.464;19.014;2023-04-06T11:15:00;8.93;;;6.35;;
58760;SDS011;44529;47.464;19.014;2023-04-06T11:18:07;10.82;;;5.97;;
58760;SDS011;44529;47.464;19.014;2023-04-06T11:21:10;10.77;;;6.20;;
58760;SDS011;44529;47.464;19.014;2023-04-06T11:27:18;10.63;;;6.25;;
58760;SDS011;44529;47.464;19.014;2023-04-06T11:30:22;7.97;;;6.40;;
58760;SDS011;44529;47.464;19.014;2023-04-06T11:33:25;6.47;;;5.57;;
58760;SDS011;44529;47.464;19.014;2023-04-06T11:36:28;8.45;;;5.97;;
58760;SDS011;44529;47.464;19.014;2023-04-06T11:39:32;7.95;;;6.07;;
58760;SDS011;44529;47.464;19.014;2023-04-06T11:42:43;10.68;;;6.28;;
58760;SDS011;44529;47.464;19.014;2023-04-06T11:49:02;11.48;;;6.15;;
58760;SDS011;44529;47.464;19.014;2023-04-06T11:52:15;8.27;;;6.55;;
58760;SDS011;44529;47.464;19.014;2023-04-06T11:55:18;7.50;;;5.80;;
58760;SDS011;44529;47.464;19.014;2023-04-06T11:58:20;10.27;;;6.62;;
58760;SDS011;44529;47.464;19.014;2023-04-06T12:01:23;10.80;;;6.70;;
58760;SDS011;44529;47.464;19.014;2023-04-06T12:04:26;9.00;;;6.82;;
58760;SDS011;44529;47.464;19.014;2023-04-06T12:07:29;7.62;;;6.30;;
58760;SDS011;44529;47.464;19.014;2023-04-06T12:10:32;11.52;;;6.45;;
58760;SDS011;44529;47.464;19.014;2023-04-06T12:13:34;10.82;;;6.68;;
58760;SDS011;44529;47.464;19.014;2023-04-06T12:16:37;8.80;;;6.35;;
58760;SDS011;44529;47.464;19.014;2023-04-06T12:19:39;11.50;;;6.65;;
58760;SDS011;44529;47.464;19.014;2023-04-06T12:22:42;13.95;;;6.68;;
58760;SDS011;44529;47.464;19.014;2023-04-06T12:25:44;7.75;;;6.07;;
58760;SDS011;44529;47.464;19.014;2023-04-06T12:28:48;9.25;;;6.62;;
58760;SDS011;44529;47.464;19.014;2023-04-06T12:31:50;7.55;;;5.93;;
58760;SDS011;44529;47.464;19.014;2023-04-06T12:34:53;8.90;;;6.75;;
58760;SDS011;44529;47.464;19.014;2023-04-06T12:37:55;11.18;;;5.87;;
58760;SDS011;44529;47.464;19.014;2023-04-06T12:40:58;9.52;;;6.35;;
58760;SDS011;44529;47.464;19.014;2023-04-06T12:44:00;7.75;;;6.12;;
58760;SDS011;44529;47.464;19.014;2023-04-06T12:47:02;7.07;;;6.07;;
58760;SDS011;44529;47.464;19.014;2023-04-06T12:50:05;6.15;;;5.35;;
58760;SDS011;44529;47.464;19.014;2023-04-06T12:53:08;8.63;;;6.50;;
58760;SDS011;44529;47.464;19.014;2023-04-06T12:56:17;10.02;;;6.85;;
58760;SDS011;44529;47.464;19.014;2023-04-06T12:59:20;8.45;;;6.40;;
58760;SDS011;44529;47.464;19.014;2023-04-06T13:02:23;9.90;;;6.32;;
58760;SDS011;44529;47.464;19.014;2023-04-06T13:05:26;8.02;;;6.62;;
58760;SDS011;44529;47.464;19.014;2023-04-06T13:08:31;8.88;;;6.25;;
58760;SDS011;44529;47.464;19.014;2023-04-06T13:11:33;8.88;;;5.82;;
58760;SDS011;44529;47.464;19.014;2023-04-06T13:14:36;8.80;;;5.97;;
58760;SDS011;44529;47.464;19.014;2023-04-06T13:17:38;11.75;;;6.43;;
58760;SDS011;44529;47.464;19.014;2023-04-06T13:20:41;8.88;;;5.85;;
58760;SDS011;44529;47.464;19.014;2023-04-06T13:23:44;8.43;;;6.30;;
58760;SDS011;44529;47.464;19.014;2023-04-06T13:26:46;8.73;;;6.60;;
58760;SDS011;44529;47.464;19.014;2023-04-06T13:29:49;11.68;;;6.57;;
58760;SDS011;44529;47.464;19.014;2023-04-06T13:32:51;10.13;;;6.30;;
58760;SDS011;44529;47.464;19.014;2023-04-06T13:35:54;8.50;;;5.90;;
58760;SDS011;44529;47.464;19.014;2023-04-06T13:38:56;12.15;;;5.97;;
58760;SDS011;44529;47.464;19.014;2023-04-06T13:41:59;7.35;;;6.05;;
58760;SDS011;44529;47.464;19.014;2023-04-06T13:45:04;7.70;;;5.62;;
58760;SDS011;44529;47.464;19.014;2023-04-06T13:48:08;10.23;;;6.12;;
58760;SDS011;44529;47.464;19.014;2023-04-06T13:51:10;8.43;;;5.87;;
58760;SDS011;44529;47.464;19.014;2023-04-06T13:54:14;10.57;;;5.53;;
58760;SDS011;44529;47.464;19.014;2023-04-06T13:57:16;9.23;;;6.10;;
58760;SDS011;44529;47.464;19.014;2023-04-06T14:00:19;10.00;;;5.62;;
58760;SDS011;44529;47.464;19.014;2023-04-06T14:03:22;7.55;;;6.12;;
58760;SDS011;44529;47.464;19.014;2023-04-06T14:06:24;11.73;;;6.78;;
58760;SDS011;44529;47.464;19.014;2023-04-06T14:09:33;8.63;;;5.90;;
58760;SDS011;44529;47.464;19.014;2023-04-06T14:12:35;10.15;;;6.12;;
58760;SDS011;44529;47.464;19.014;2023-04-06T14:15:38;7.20;;;5.90;;
58760;SDS011;44529;47.464;19.014;2023-04-06T14:18:40;9.20;;;6.45;;
58760;SDS011;44529;47.464;19.014;2023-04-06T14:21:43;7.35;;;5.60;;
58760;SDS011;44529;47.464;19.014;2023-04-06T14:24:46;8.40;;;6.15;;
58760;SDS011;44529;47.464;19.014;2023-04-06T14:27:49;16.12;;;6.85;;
58760;SDS011;44529;47.464;19.014;2023-04-06T14:30:51;11.40;;;6.10;;
58760;SDS011;44529;47.464;19.014;2023-04-06T14:33:53;7.87;;;5.62;;
58760;SDS011;44529;47.464;19.014;2023-04-06T14:36:56;9.25;;;6.00;;
58760;SDS011;44529;47.464;19.014;2023-04-06T14:39:58;9.55;;;6.18;;
58760;SDS011;44529;47.464;19.014;2023-04-06T14:43:01;7.72;;;6.32;;
58760;SDS011;44529;47.464;19.014;2023-04-06T14:46:03;8.55;;;5.90;;
58760;SDS011;44529;47.464;19.014;2023-04-06T14:49:06;9.05;;;6.12;;
58760;SDS011;44529;47.464;19.014;2023-04-06T14:52:08;6.97;;;5.82;;
58760;SDS011;44529;47.464;19.014;2023-04-06T14:55:11;11.70;;;6.70;;
58760;SDS011;44529;47.464;19.014;2023-04-06T14:58:13;10.15;;;6.62;;
58760;SDS011;44529;47.464;19.014;2023-04-06T15:01:16;12.32;;;6.18;;
58760;SDS011;44529;47.464;19.014;2023-04-06T15:04:20;9.85;;;5.93;;
58760;SDS011;44529;47.464;19.014;2023-04-06T15:07:23;8.70;;;6.10;;
58760;SDS011;44529;47.464;19.014;2023-04-06T15:10:25;9.77;;;6.15;;
58760;SDS011;44529;47.464;19.014;2023-04-06T15:13:27;7.28;;;5.70;;
58760;SDS011;44529;47.464;19.014;2023-04-06T15:16:30;7.55;;;5.90;;
58760;SDS011;44529;47.464;19.014;2023-04-06T15:19:34;10.38;;;6.60;;
58760;SDS011;44529;47.464;19.014;2023-04-06T15:22:37;8.88;;;6.40;;
58760;SDS011;44529;47.464;19.014;2023-04-06T15:25:39;10.35;;;6.80;;
58760;SDS011;44529;47.464;19.014;2023-04-06T15:28:43;8.75;;;6.43;;
58760;SDS011;44529;47.464;19.014;2023-04-06T15:31:45;11.60;;;6.93;;
58760;SDS011;44529;47.464;19.014;2023-04-06T15:34:48;10.60;;;7.32;;
58760;SDS011;44529;47.464;19.014;2023-04-06T15:37:50;10.68;;;6.57;;
58760;SDS011;44529;47.464;19.014;2023-04-06T15:40:53;8.38;;;6.28;;
58760;SDS011;44529;47.464;19.014;2023-04-06T15:43:55;8.38;;;6.82;;
58760;SDS011;44529;47.464;19.014;2023-04-06T15:46:58;14.07;;;6.95;;
58760;SDS011;44529;47.464;19.014;2023-04-06T15:50:00;11.93;;;7.45;;
58760;SDS011;44529;47.464;19.014;2023-04-06T15:53:03;12.45;;;7.28;;
58760;SDS011;44529;47.464;19.014;2023-04-06T15:56:05;9.90;;;7.03;;
58760;SDS011;44529;47.464;19.014;2023-04-06T15:59:10;7.62;;;6.75;;
58760;SDS011;44529;47.464;19.014;2023-04-06T16:02:13;13.07;;;7.60;;
58760;SDS011;44529;47.464;19.014;2023-04-06T16:05:15;13.73;;;6.80;;
58760;SDS011;44529;47.464;19.014;2023-04-06T16:08:17;12.20;;;7.15;;
58760;SDS011;44529;47.464;19.014;2023-04-06T16:11:20;7.93;;;6.80;;
58760;SDS011;44529;47.464;19.014;2023-04-06T16:14:23;12.70;;;7.28;;
58760;SDS011;44529;47.464;19.014;2023-04-06T16:17:25;9.43;;;6.97;;
58760;SDS011;44529;47.464;19.014;2023-04-06T16:20:28;12.95;;;6.95;;
58760;SDS011;44529;47.464;19.014;2023-04-06T16:23:32;9.57;;;6.35;;
58760;SDS011;44529;47.464;19.014;2023-04-06T16:26:34;9.15;;;6.50;;
58760;SDS011;44529;47.464;19.014;2023-04-06T16:29:37;12.70;;;7.35;;
58760;SDS011;44529;47.464;19.014;2023-04-06T16:32:40;10.60;;;6.75;;
58760;SDS011;44529;47.464;19.014;2023-04-06T16:35:44;8.75;;;6.97;;
58760;SDS011;44529;47.464;19.014;2023-04-06T16:38:47;10.73;;;7.50;;
58760;SDS011;44529;47.464;19.014;2023-04-06T16:41:50;9.40;;;7.47;;
58760;SDS011;44529;47.464;19.014;2023-04-06T16:44:52;10.68;;;7.60;;
58760;SDS011;44529;47.464;19.014;2023-04-06T16:47:54;11.20;;;8.35;;
58760;SDS011;44529;47.464;19.014;2023-04-06T16:50:57;10.27;;;7.97;;
58760;SDS011;44529;47.464;19.014;2023-04-06T16:53:59;10.57;;;8.18;;
58760;SDS011;44529;47.464;19.014;2023-04-06T16:57:03;11.35;;;9.13;;
58760;SDS011;44529;47.464;19.014;2023-04-06T17:00:07;11.52;;;8.85;;
58760;SDS011;44529;47.464;19.014;2023-04-06T17:03:10;14.02;;;9.02;;
58760;SDS011;44529;47.464;19.014;2023-04-06T17:06:13;11.63;;;9.27;;
58760;SDS011;44529;47.464;19.014;2023-04-06T17:09:16;13.05;;;9.80;;
58760;SDS011;44529;47.464;19.014;2023-04-06T17:12:18;13.10;;;9.70;;
58760;SDS011;44529;47.464;19.014;2023-04-06T17:15:20;12.77;;;10.02;;
58760;SDS011;44529;47.464;19.014;2023-04-06T17:18:25;14.50;;;10.80;;
58760;SDS011;44529;47.464;19.014;2023-04-06T17:21:30;13.15;;;10.52;;
58760;SDS011;44529;47.464;19.014;2023-04-06T17:24:33;14.27;;;11.10;;
58760;SDS011;44529;47.464;19.014;2023-04-06T17:27:35;14.55;;;11.40;;
58760;SDS011;44529;47.464;19.014;2023-04-06T17:30:38;16.33;;;11.93;;
58760;SDS011;44529;47.464;19.014;2023-04-06T17:33:41;14.80;;;13.07;;
58760;SDS011;44529;47.464;19.014;2023-04-06T17:36:43;17.02;;;13.27;;
58760;SDS011;44529;47.464;19.014;2023-04-06T17:39:45;15.23;;;13.07;;
58760;SDS011;44529;47.464;19.014;2023-04-06T17:42:48;15.85;;;12.80;;
58760;SDS011;44529;47.464;19.014;2023-04-06T17:45:50;15.63;;;13.05;;
58760;SDS011;44529;47.464;19.014;2023-04-06T17:48:53;16.95;;;13.48;;
58760;SDS011;44529;47.464;19.014;2023-04-06T17:51:55;18.08;;;14.77;;
58760;SDS011;44529;47.464;19.014;2023-04-06T17:54:57;17.35;;;14.27;;
58760;SDS011;44529;47.464;19.014;2023-04-06T17:58:00;16.48;;;13.73;;